createdAt,value
2019-03-17T00:01:02.049Z,3.50
2019-03-17T00:05:07.261Z,2.57
2019-03-17T00:09:12.254Z,4.30
2019-03-17T00:13:17.886Z,4.47
2019-03-17T00:17:25.130Z,2.10
2019-03-17T00:21:29.520Z,4.20
2019-03-17T00:25:34.563Z,3.17
2019-03-17T00:29:39.541Z,4.67
2019-03-17T00:33:44.542Z,2.83
2019-03-17T00:37:49.507Z,3.43
2019-03-17T00:41:54.494Z,4.60
2019-03-17T00:45:59.479Z,4.37
2019-03-17T00:50:07.406Z,4.03
2019-03-17T00:54:12.389Z,3.90
2019-03-17T00:58:17.381Z,3.57
2019-03-17T01:02:22.373Z,2.83
2019-03-17T01:06:27.474Z,5.77
2019-03-17T01:10:32.462Z,2.93
2019-03-17T01:14:37.534Z,4.03
2019-03-17T01:18:42.513Z,5.17
2019-03-17T01:22:47.481Z,4.33
2019-03-17T01:26:52.470Z,2.90
2019-03-17T01:30:57.451Z,3.00
2019-03-17T01:35:08.955Z,5.07
2019-03-17T01:39:09.307Z,3.77
2019-03-17T01:43:14.289Z,4.50
2019-03-17T01:47:19.264Z,4.90
2019-03-17T01:51:24.253Z,4.87
2019-03-17T01:55:29.311Z,7.27
2019-03-17T01:59:34.305Z,8.27
2019-03-17T02:03:39.281Z,4.73
2019-03-17T02:07:44.333Z,4.17
2019-03-17T02:11:49.331Z,6.23
2019-03-17T02:15:55.383Z,2.53
2019-03-17T02:20:00.395Z,4.73
2019-03-17T02:24:05.379Z,5.90
2019-03-17T02:28:10.333Z,4.70
2019-03-17T02:32:15.320Z,4.40
2019-03-17T02:36:20.298Z,5.33
2019-03-17T02:40:25.444Z,4.33
2019-03-17T02:44:30.482Z,3.93
2019-03-17T02:48:35.509Z,5.87
2019-03-17T02:52:40.499Z,2.83
2019-03-17T02:56:45.490Z,5.23
2019-03-17T03:00:50.474Z,4.70
2019-03-17T03:04:55.545Z,2.70
2019-03-17T03:09:00.508Z,4.33
2019-03-17T03:13:05.493Z,5.07
2019-03-17T03:17:10.538Z,4.80
2019-03-17T03:21:15.566Z,2.67
2019-03-17T03:25:20.635Z,4.53
2019-03-17T03:29:27.312Z,2.20
2019-03-17T03:33:32.208Z,3.63
2019-03-17T03:37:37.193Z,3.80
2019-03-17T03:41:42.186Z,3.13
2019-03-17T03:45:47.176Z,2.17
2019-03-17T03:49:52.162Z,2.43
2019-03-17T03:53:57.193Z,2.20
2019-03-17T03:58:02.444Z,3.53
2019-03-17T04:02:07.696Z,3.27
2019-03-17T04:06:25.761Z,2.10
2019-03-17T04:10:19.834Z,2.07
2019-03-17T04:14:24.864Z,4.07
2019-03-17T04:18:29.889Z,4.13
2019-03-17T04:22:35.160Z,4.60
2019-03-17T04:26:40.142Z,3.03
2019-03-17T04:30:45.407Z,4.43
2019-03-17T04:34:50.373Z,6.70
2019-03-17T04:38:56.456Z,4.10
2019-03-17T04:43:01.439Z,3.13
2019-03-17T04:47:06.426Z,2.50
2019-03-17T04:51:11.418Z,3.20
2019-03-17T04:55:16.417Z,5.67
2019-03-17T04:59:21.450Z,4.03
2019-03-17T05:03:26.697Z,3.80
2019-03-17T05:07:31.955Z,3.47
2019-03-17T05:11:37.209Z,2.50
2019-03-17T05:15:43.544Z,2.33
2019-03-17T05:19:48.933Z,4.87
2019-03-17T05:23:54.220Z,1.40
2019-03-17T05:27:59.199Z,2.70
2019-03-17T05:32:04.525Z,3.97
2019-03-17T05:36:09.800Z,2.20
2019-03-17T05:40:15.021Z,4.13
2019-03-17T05:44:20.281Z,3.53
2019-03-17T05:48:27.487Z,6.97
2019-03-17T05:52:32.691Z,8.33
2019-03-17T05:56:37.941Z,6.90
2019-03-17T06:00:43.285Z,7.13
2019-03-17T06:04:48.527Z,4.83
2019-03-17T06:08:53.795Z,3.60
2019-03-17T06:12:59.069Z,3.37
2019-03-17T06:17:04.340Z,1.77
2019-03-17T06:21:09.616Z,4.03
2019-03-17T06:25:15.020Z,3.20
2019-03-17T06:29:20.369Z,2.57
2019-03-17T06:33:25.641Z,2.30
2019-03-17T06:37:31.445Z,3.10
2019-03-17T06:41:36.781Z,4.87
2019-03-17T06:45:42.033Z,4.77
2019-03-17T06:49:47.297Z,3.73
2019-03-17T06:53:56.561Z,2.60
2019-03-17T06:58:00.515Z,4.57
2019-03-17T07:02:05.790Z,3.17
2019-03-17T07:06:11.066Z,2.70
2019-03-17T07:10:16.332Z,4.10
2019-03-17T07:14:21.594Z,2.47
2019-03-17T07:18:29.350Z,3.50
2019-03-17T07:22:34.638Z,3.37
2019-03-17T07:26:39.895Z,3.83
2019-03-17T07:30:45.146Z,3.80
2019-03-17T07:34:50.409Z,2.30
2019-03-17T07:38:55.762Z,4.97
2019-03-17T07:43:01.029Z,2.83
2019-03-17T07:47:06.305Z,3.37
2019-03-17T07:51:11.566Z,2.73
2019-03-17T07:55:16.833Z,2.93
2019-03-17T07:59:22.099Z,2.93
2019-03-17T08:03:27.365Z,3.77
2019-03-17T08:07:32.693Z,3.80
2019-03-17T08:11:37.988Z,3.10
2019-03-17T08:15:43.231Z,3.03
2019-03-17T08:19:48.494Z,2.30
2019-03-17T08:23:53.759Z,3.70
2019-03-17T08:27:59.017Z,3.47
2019-03-17T08:32:04.379Z,3.03
2019-03-17T08:36:09.638Z,14.30
2019-03-17T08:40:19.024Z,3.77
2019-03-17T08:44:24.351Z,3.17
2019-03-17T08:48:29.701Z,4.40
2019-03-17T08:52:34.987Z,3.90
2019-03-17T08:56:40.305Z,2.77
2019-03-17T09:00:45.569Z,5.40
2019-03-17T09:04:50.927Z,2.67
2019-03-17T09:08:56.187Z,2.77
2019-03-17T09:13:04.148Z,2.67
2019-03-17T09:17:14.413Z,2.03
2019-03-17T09:21:15.282Z,4.03
2019-03-17T09:25:20.549Z,8.50
2019-03-17T09:29:25.810Z,3.43
2019-03-17T09:33:31.074Z,3.70
2019-03-17T09:37:36.349Z,4.60
2019-03-17T09:41:41.598Z,4.37
2019-03-17T09:45:46.865Z,6.17
2019-03-17T09:49:52.199Z,3.13
2019-03-17T09:53:57.463Z,2.23
2019-03-17T09:58:02.758Z,4.23
2019-03-17T10:02:08.007Z,3.27
2019-03-17T10:06:13.265Z,2.83
2019-03-17T10:10:20.274Z,3.57
2019-03-17T10:14:25.537Z,2.87
2019-03-17T10:18:30.944Z,3.10
2019-03-17T10:22:36.113Z,4.57
2019-03-17T10:26:41.387Z,6.90
2019-03-17T10:30:46.654Z,9.50
2019-03-17T10:34:51.933Z,9.53
2019-03-17T10:38:57.227Z,7.40
2019-03-17T10:43:02.470Z,4.37
2019-03-17T10:47:07.721Z,9.10
2019-03-17T10:51:12.987Z,8.70
2019-03-17T10:55:18.336Z,6.80
2019-03-17T10:59:23.594Z,8.70
2019-03-17T11:03:28.857Z,5.90
2019-03-17T11:07:34.102Z,6.77
2019-03-17T11:11:39.383Z,12.93
2019-03-17T11:15:44.657Z,14.87
2019-03-17T11:19:49.926Z,8.23
2019-03-17T11:23:55.202Z,11.87
2019-03-17T11:28:02.435Z,13.70
2019-03-17T11:32:08.573Z,13.07
2019-03-17T11:36:15.782Z,10.57
2019-03-17T11:40:21.699Z,10.77
2019-03-17T11:44:26.984Z,12.70
2019-03-17T11:48:33.329Z,17.83
2019-03-17T11:52:39.149Z,17.07
2019-03-17T11:56:44.434Z,13.00
2019-03-17T12:00:49.742Z,18.20
2019-03-17T12:04:55.114Z,18.63
2019-03-17T12:09:00.458Z,16.03
2019-03-17T12:13:06.889Z,12.83
2019-03-17T12:17:12.162Z,9.40
2019-03-17T12:21:17.540Z,13.60
2019-03-17T12:25:22.813Z,11.87
2019-03-17T12:29:28.157Z,15.17
2019-03-17T12:33:33.499Z,15.70
2019-03-17T12:37:38.752Z,15.60
2019-03-17T12:41:44.031Z,9.63
2019-03-17T12:45:49.354Z,10.23
2019-03-17T12:49:54.653Z,9.80
2019-03-17T12:53:59.931Z,7.93
2019-03-17T12:58:05.189Z,15.40
2019-03-17T13:02:10.469Z,10.00
2019-03-17T13:06:15.765Z,15.20
2019-03-17T13:10:22.077Z,11.57
2019-03-17T13:14:27.373Z,14.07
2019-03-17T13:18:32.646Z,10.03
2019-03-17T13:22:38.023Z,10.77
2019-03-17T13:26:44.393Z,8.07
2019-03-17T13:30:49.673Z,13.50
2019-03-17T13:34:55.060Z,10.33
2019-03-17T13:39:00.306Z,8.87
2019-03-17T13:43:05.706Z,10.67
2019-03-17T13:47:10.981Z,13.00
2019-03-17T13:51:16.261Z,12.67
2019-03-17T13:55:21.581Z,14.47
2019-03-17T13:59:26.837Z,10.50
2019-03-17T14:03:32.085Z,8.13
2019-03-17T14:07:37.434Z,8.93
2019-03-17T14:11:43.791Z,10.67
2019-03-17T14:15:49.066Z,10.73
2019-03-17T14:19:54.349Z,8.00
2019-03-17T14:23:59.722Z,9.30
2019-03-17T14:28:05.073Z,11.13
2019-03-17T14:32:10.353Z,9.97
2019-03-17T14:36:15.635Z,15.53
2019-03-17T14:40:20.928Z,10.20
2019-03-17T14:44:26.362Z,8.03
2019-03-17T14:48:31.650Z,5.73
2019-03-17T14:52:36.968Z,10.00
2019-03-17T14:56:42.241Z,9.50
2019-03-17T15:00:47.514Z,7.60
2019-03-17T15:04:52.827Z,9.00
2019-03-17T15:08:58.120Z,5.40
2019-03-17T15:13:03.390Z,4.60
2019-03-17T15:17:08.675Z,4.93
2019-03-17T15:21:13.944Z,1.43
2019-03-17T15:25:19.210Z,5.00
2019-03-17T15:29:24.504Z,2.90
2019-03-17T15:33:29.615Z,1.90
2019-03-17T15:37:34.654Z,3.63
2019-03-17T15:41:39.625Z,2.70
2019-03-17T15:45:44.643Z,6.27
2019-03-17T15:49:49.691Z,2.13
2019-03-17T15:53:54.692Z,2.27
2019-03-17T15:57:59.742Z,1.63
2019-03-17T16:02:04.877Z,2.27
2019-03-17T16:06:09.859Z,5.57
2019-03-17T16:10:22.847Z,2.77
2019-03-17T16:14:28.013Z,2.13
2019-03-17T16:18:33.410Z,4.67
2019-03-17T16:22:38.483Z,4.93
2019-03-17T16:26:43.462Z,2.83
2019-03-17T16:30:48.445Z,2.90
2019-03-17T16:34:53.418Z,2.27
2019-03-17T16:38:58.686Z,2.77
2019-03-17T16:43:04.239Z,4.03
2019-03-17T16:47:09.320Z,2.70
2019-03-17T16:51:14.418Z,3.90
2019-03-17T16:55:19.716Z,1.77
2019-03-17T16:59:24.960Z,3.90
2019-03-17T17:03:30.414Z,2.27
2019-03-17T17:07:35.451Z,6.77
2019-03-17T17:11:40.626Z,2.63
2019-03-17T17:15:45.601Z,13.00
2019-03-17T17:19:50.592Z,5.27
2019-03-17T17:23:55.668Z,9.80
2019-03-17T17:28:00.687Z,3.23
2019-03-17T17:32:05.646Z,6.70
2019-03-17T17:36:10.629Z,4.73
2019-03-17T17:40:20.049Z,3.90
2019-03-17T17:44:25.042Z,5.03
2019-03-17T17:48:30.019Z,6.17
2019-03-17T17:52:35.019Z,4.60
2019-03-17T17:56:40.021Z,6.53
2019-03-17T18:00:46.625Z,3.50
2019-03-17T18:04:51.613Z,4.73
2019-03-17T18:08:56.930Z,7.47
2019-03-17T18:13:01.915Z,5.23
2019-03-17T18:17:06.903Z,7.20
2019-03-17T18:21:11.865Z,5.60
2019-03-17T18:25:19.220Z,5.57
2019-03-17T18:29:24.575Z,7.73
2019-03-17T18:33:29.585Z,5.00
2019-03-17T18:37:34.580Z,5.90
2019-03-17T18:41:39.569Z,5.63
2019-03-17T18:45:44.647Z,4.80
2019-03-17T18:49:49.635Z,6.67
2019-03-17T18:53:54.661Z,7.03
2019-03-17T18:57:59.641Z,5.67
2019-03-17T19:02:04.809Z,4.27
2019-03-17T19:06:09.791Z,5.30
2019-03-17T19:10:21.336Z,6.17
2019-03-17T19:14:26.425Z,6.57
2019-03-17T19:18:31.434Z,9.70
2019-03-17T19:22:36.417Z,9.77
2019-03-17T19:26:41.413Z,6.60
2019-03-17T19:30:46.409Z,4.90
2019-03-17T19:34:51.484Z,6.67
2019-03-17T19:38:56.567Z,5.37
2019-03-17T19:43:01.621Z,6.40
2019-03-17T19:47:06.759Z,5.13
2019-03-17T19:51:11.812Z,25.57
2019-03-17T19:55:16.933Z,5.90
2019-03-17T19:59:22.448Z,6.20
2019-03-17T20:03:27.443Z,6.30
2019-03-17T20:07:32.438Z,4.43
2019-03-17T20:11:37.426Z,3.83
2019-03-17T20:15:42.512Z,4.87
2019-03-17T20:19:47.701Z,4.60
2019-03-17T20:23:52.686Z,8.70
2019-03-17T20:27:57.693Z,7.17
2019-03-17T20:32:03.081Z,5.27
2019-03-17T20:36:08.169Z,6.27
2019-03-17T20:40:17.098Z,7.10
2019-03-17T20:44:22.083Z,5.07
2019-03-17T20:48:27.098Z,6.30
2019-03-17T20:52:32.069Z,4.80
2019-03-17T20:56:37.052Z,9.73
2019-03-17T21:00:42.135Z,3.33
2019-03-17T21:04:47.240Z,3.90
2019-03-17T21:08:52.297Z,3.80
2019-03-17T21:12:57.368Z,5.83
2019-03-17T21:17:02.420Z,4.33
2019-03-17T21:21:08.422Z,5.83
2019-03-17T21:25:13.666Z,4.97
2019-03-17T21:29:18.709Z,3.90
2019-03-17T21:33:23.638Z,4.00
2019-03-17T21:37:28.601Z,5.20
2019-03-17T21:41:33.661Z,4.80
2019-03-17T21:45:38.649Z,7.20
2019-03-17T21:49:43.633Z,6.73
2019-03-17T21:53:48.620Z,5.33
2019-03-17T21:57:53.590Z,4.43
2019-03-17T22:01:58.580Z,10.40
2019-03-17T22:06:03.637Z,6.07
2019-03-17T22:10:16.201Z,3.87
2019-03-17T22:14:21.185Z,6.00
2019-03-17T22:18:26.218Z,7.43
2019-03-17T22:22:31.187Z,6.23
2019-03-17T22:26:36.264Z,6.80
2019-03-17T22:30:41.265Z,8.23
2019-03-17T22:34:46.233Z,7.13
2019-03-17T22:38:51.244Z,6.73
2019-03-17T22:42:56.216Z,5.37
2019-03-17T22:47:01.217Z,7.73
2019-03-17T22:51:06.265Z,6.80
2019-03-17T22:55:11.796Z,4.77
2019-03-17T22:59:16.787Z,6.70
2019-03-17T23:03:21.748Z,9.10
2019-03-17T23:07:26.763Z,6.13
2019-03-17T23:11:31.741Z,7.37
2019-03-17T23:15:36.756Z,9.50
2019-03-17T23:19:41.910Z,7.27
2019-03-17T23:23:46.876Z,5.60
2019-03-17T23:27:51.930Z,5.97
2019-03-17T23:31:56.923Z,3.27
2019-03-17T23:36:01.942Z,22.33
2019-03-17T23:40:09.763Z,5.03
2019-03-17T23:44:14.953Z,2.77
2019-03-17T23:48:19.930Z,4.60
2019-03-17T23:52:24.923Z,4.83
2019-03-17T23:56:30.967Z,6.60
